Архив погоды в Комсомольском

Метеограмма Комсомольский
Среда, 25 Апреля
Время местн. Темп Ветер Видим Явления Облачность нижн/средн/верх Атм. давл. Влжн Точка росы ВНГО R Сост. почвы Tg s
Напр Скр Прв ур.ст ур.м изм
12:00 +20.6° Ю,Ю-З 5 - 20 км - переменная облачность 764 764 -0.9 30% +2.3° - - - - -
09:00 +16.4° Ю-З 4 - 20 км - облачно 765 765 +0.2 45% +4.6° более 2.5 км - - - -
06:00 +6.7° Ю,Ю-З 3 - 20 км - переменная облачность 765 765 +0.4 90% +5.2° - - Сухая (без трещин) - -
03:00 +6.2° Ю 2 - 20 км - ясно 765 764 -0.7 89% +4.5° более 2.5 км - - - -
00:00 +8.6° Ю 1 - 20 км - ясно 765 765 +0.7 58% +0.7° более 2.5 км - - - -
Вторник, 24 Апреля
Время местн. Темп Ветер Видим Явления Облачность нижн/средн/верх Атм. давл. Влжн Точка росы ВНГО R Сост. почвы Tg s
Напр Скр Прв ур.ст ур.м изм
21:00 +7.6° Ю-З 1 - 20 км - ясно 766 766 +0.7 60% +0.4° более 2.5 км - - - -
18:00 +14.7° С-З 3 - 20 км - ясно 765 765 +0.1 30% -2.5° более 2.5 км - - - -
15:00 +16.2° З,С-З 4 - 20 км - переменная облачность 765 765 -0.6 28% -2.4° более 2.5 км - - - -
12:00 +12.9° З,С-З 4 - 20 км - переменная облачность 766 766 +0.2 39% -0.6° 1.5 км - - - -
09:00 +10.5° З,С-З 2 - 20 км - переменная облачность 766 766 +1.4 53% +1.4° более 2.5 км - - - -
06:00 +3.4° С 1 - 4 км дымка переменная облачность 764 764 +1.4 91% +2.1° - - Влажная (без луж) - -
03:00 +4.1° С 1 - 20 км - ясно 763 763 +1.3 90% +2.6° более 2.5 км - - - -
00:00 +7.2° С,С-З 2 - 20 км - переменная облачность 762 761 +1.7 91% +5.8° 1 км - - - -
Понедельник, 23 Апреля
Время местн. Темп Ветер Видим Явления Облачность нижн/средн/верх Атм. давл. Влжн Точка росы ВНГО R Сост. почвы Tg s
Напр Скр Прв ур.ст ур.м изм
21:00 +9.7° З,С-З 1 - 20 км небо без изменений {ливневые осадки} переменная облачность 761 761 +1.7 82% +6.8° 1 км - - - -
18:00 +12.3° З 3 - 20 км ливневый дождь облачно 759 759 +0.2 71% +7.3° 600 м - - - -
15:00 +11.1° З 5 10 10 км слабый ливневый дождь облачно 759 759 +1.2 79% +7.6° 600 м - - - -
12:00 +18.8° З,С-З 6 12 20 км - переменная облачность 758 758 -0.2 30% +0.9° 1.5 км - - - -
09:00 +15.4° З 4 - 20 км - переменная облачность 758 758 +0.7 52% +5.7° более 2.5 км - - - -
06:00 +7.7° З 4 - 20 км - незначительная облачность 757 757 +0.5 78% +4.2° более 2.5 км 0 Влажная (без луж) +4° -
03:00 +6.9° З,Ю-З 2 - 20 км - ясно 757 756 -0.2 85% +4.6° более 2.5 км - - - -
00:00 +7.8° Ю,Ю-З 1 13 20 км - переменная облачность 757 757 +0.3 87% +5.7° более 2.5 км - - - -
Воскресенье, 22 Апреля
Время местн. Темп Ветер Видим Явления Облачность нижн/средн/верх Атм. давл. Влжн Точка росы ВНГО R Сост. почвы Tg s
Напр Скр Прв ур.ст ур.м изм
21:00 +13.3° З 4 - 20 км небо без изменений {ливневые осадки} облачно 757 756 +1 73% +8.6° 600 м - - - -
18:00 +12.8° Ю-З 2 15 20 км ливневый дождь облачно 756 755 +0.1 83% +9.9° 600 м 0.8 - - -
15:00 +18.4° С-З 7 14 20 км - преимущественно облачно 756 755 -0.2 41% +4.9° 1 км - - - -
12:00 +19.9° З 5 11 2 км - переменная облачность 756 756 -1.4 35% +4.1° 1.5 км - - - -
09:00 +15.6° З 6 11 20 км - переменная облачность 757 757 -0.8 50% +5.1° - - - - -